Home > Products > Valid Products > TAF

000
FTUS44 KLCH 221100
TAFLCH
TAF
KLCH 221125Z 2212/2312 VRB05KT P6SM FEW030
     FM221700 04010KT P6SM SCT050
     FM230200 03007KT P6SM SKC=



000
FTUS44 KLCH 221100
TAFARA
TAF
KARA 221125Z 2212/2312 VRB05KT P6SM FEW030
     FM221800 03010KT P6SM SCT050
     FM230200 03007KT P6SM SKC=



000
FTUS44 KLCH 221100
TAFBPT
TAF
KBPT 221125Z 2212/2312 VRB05KT P6SM SKC
      TEMPO 2212/2213 5SM BR
     FM221800 04010KT P6SM SCT050
     FM230200 03007KT P6SM SKC=



000
FTUS44 KLCH 221100
TAFAEX
TAF
KAEX 221125Z 2212/2312 01005KT P6SM FEW050
     FM221600 02012KT P6SM SCT050
     FM230100 03004KT P6SM SKC=



000
FTUS44 KLCH 221100
TAFLFT
TAF
KLFT 221125Z 2212/2312 VRB05KT P6SM FEW040
     FM221700 03010KT P6SM SCT050
     FM230200 03005KT P6SM SKC=



000
FTUS44 KLCH 220900 AAA
TAFBPT
TAF AMD
KBPT 220959Z 2210/2306 VRB05KT P6SM SKC
      TEMPO 2210/2213 4SM BR
     FM221600 03008KT P6SM SCT050
     FM222100 02008KT P6SM VCTS SCT040CB
     FM230200 03007KT P6SM SKC=



000
FTUS44 KLCH 220500
TAFAEX
TAF
KAEX 220520Z 2206/2306 VRB04KT 4SM BR SKC
     FM221300 01006KT P6SM SKC
     FM221600 02010KT P6SM SKC
     FM230100 VRB04KT P6SM SKC=



000
FTUS44 KLCH 220500
TAFBPT
TAF
KBPT 220520Z 2206/2306 VRB05KT P6SM SKC
     FM221600 03008KT P6SM SCT050
     FM222100 02008KT P6SM VCTS SCT040CB
     FM230200 03007KT P6SM SKC=



000
FTUS44 KLCH 220500
TAFARA
TAF
KARA 220520Z 2206/2306 VRB05KT P6SM SKC
     FM221600 02008KT P6SM SCT050
     FM222100 03008KT P6SM VCTS SCT040CB
     FM230200 01005KT P6SM SKC=



000
FTUS44 KLCH 220500
TAFLFT
TAF
KLFT 220520Z 2206/2306 VRB04KT P6SM SKC
     FM221600 01008KT P6SM SKC
     FM222100 02008KT P6SM VCTS SCT040CB
     FM230200 03005KT P6SM SKC=



000
FTUS44 KLCH 220500
TAFLCH
TAF
KLCH 220520Z 2206/2306 VRB04KT P6SM SKC
     FM221600 03008KT P6SM SCT050
     FM222100 04008KT P6SM VCTS SCT040CB
     FM230200 03007KT P6SM SKC=



000
FTUS44 KLCH 212300 RRA
TAFARA
TAF
KARA 212341Z 2200/2224 VRB05KT P6SM SKC
     FM221500 02008KT P6SM SKC
     FM221800 03008KT P6SM VCTS SCT035CB=



000
FTUS44 KLCH 212300 RRA
TAFLFT
TAF
KLFT 212341Z 2200/2224 VRB04KT P6SM SKC
     FM221500 01008KT P6SM SKC
     FM221800 02008KT P6SM VCTS SCT035CB=



000
FTUS44 KLCH 212300 RRA
TAFBPT
TAF
KBPT 212341Z 2200/2224 VRB05KT P6SM SKC
     FM221500 03008KT P6SM SKC
     FM221800 02008KT P6SM VCTS SCT035CB=



000
FTUS44 KLCH 212300 RRA
TAFLCH
TAF
KLCH 212341Z 2200/2224 VRB04KT P6SM SKC
     FM221500 04008KT P6SM SKC
     FM222100 04008KT P6SM VCTS SCT035CB=



000
FTUS44 KLCH 212300 RRA
TAFAEX
TAF
KAEX 212341Z 2200/2224 VRB04KT P6SM SKC
     FM221500 02010KT P6SM SKC=



000
FTUS44 KLCH 211700
TAFLFT
TAF
KLFT 211720Z 2118/2218 06006KT P6SM FEW050=



000
FTUS44 KLCH 211700
TAFBPT
TAF
KBPT 211720Z 2118/2218 08009KT P6SM FEW050
     FM220100 06003KT P6SM SKC=



000
FTUS44 KLCH 211700
TAFLCH
TAF
KLCH 211720Z 2118/2218 08008KT P6SM FEW050
     FM220000 06003KT P6SM SKC=



000
FTUS44 KLCH 211700
TAFARA
TAF
KARA 211720Z 2118/2218 05008KT P6SM FEW050=



000
FTUS44 KLCH 211700
TAFAEX
TAF
KAEX 211720Z 2118/2218 05005KT P6SM FEW060=



000
FTUS44 KLCH 211400 AAC
TAFAEX
TAF AMD
KAEX 211419Z 2114/2212 VRB03KT P6SM SKC
     FM211600 02007KT P6SM FEW060=



000
FTUS44 KLCH 211300 AAA
TAFARA
TAF AMD
KARA 211301Z 2113/2212 00000KT 5SM BR SKC
     FM211400 04006KT P6SM SKC=



000
FTUS44 KLCH 211300 AAA
TAFLFT
TAF AMD
KLFT 211300Z 2113/2212 00000KT 5SM BR SKC
     FM211400 04005KT P6SM SKC=



000
FTUS44 KLCH 211200 AAB
TAFAEX
TAF AMD
KAEX 211257Z 2113/2212 00000KT 5SM BR SKC
     FM211500 05003KT 6SM BR SKC
     FM211600 02008KT P6SM FEW060=



000
FTUS44 KLCH 211200 AAA
TAFAEX
TAF AMD
KAEX 211241Z 2113/2212 00000KT 6SM BR SKC
     FM211500 05003KT 6SM BR SKC
     FM211600 02008KT P6SM FEW060=



000
FTUS44 KLCH 211100
TAFLFT
TAF
KLFT 211127Z 2112/2212 04005KT P6SM SKC=



000
FTUS44 KLCH 211100
TAFBPT
TAF
KBPT 211127Z 2112/2212 05006KT P6SM SKC
     FM211500 07010KT P6SM FEW040
     FM220100 02003KT P6SM SKC=



000
FTUS44 KLCH 211100
TAFAEX
TAF
KAEX 211127Z 2112/2212 00000KT 3SM BR SKC
      TEMPO 2112/2114 1SM BR
     FM211500 05003KT 6SM BR SKC
     FM211600 02008KT P6SM FEW060=



000
FTUS44 KLCH 211100
TAFARA
TAF
KARA 211127Z 2112/2212 04006KT P6SM SKC=



000
FTUS44 KLCH 211100
TAFLCH
TAF
KLCH 211127Z 2112/2212 06006KT P6SM SKC
     FM211500 06008KT P6SM SKC
     FM220000 00000KT P6SM SKC=



000
FTUS44 KLCH 211100 AAB
TAFAEX
TAF AMD
KAEX 211101Z 2111/2206 00000KT 6SM BR SKC
     FM211200 00000KT 3SM BR SKC
      TEMPO 2112/2114 1SM BR
     FM211500 05003KT 6SM BR SKC
     FM211600 02008KT P6SM FEW060=



000
FTUS44 KLCH 210700 AAA
TAFAEX
TAF AMD
KAEX 210710Z 2107/2206 00000KT 3SM MIFG SKC
      TEMPO 2107/2111 1SM BR SKC
     FM211100 00000KT 1SM BR SKC
     FM211500 VRB03KT 6SM BR SKC
     FM211600 VRB06KT P6SM FEW060=



000
FTUS44 KLCH 210500
TAFLFT
TAF
KLFT 210520Z 2106/2206 VRB03KT P6SM SKC
     FM211500 04007KT P6SM SKC=



000
FTUS44 KLCH 210500
TAFBPT
TAF
KBPT 210520Z 2106/2206 VRB04KT P6SM SKC
     FM211500 07008KT P6SM SKC=



000
FTUS44 KLCH 210500
TAFARA
TAF
KARA 210520Z 2106/2206 VRB04KT P6SM SKC
     FM211500 05008KT P6SM SKC=



000
FTUS44 KLCH 210500
TAFAEX
TAF
KAEX 210520Z 2106/2206 00000KT P6SM SKC
      TEMPO 2109/2113 3SM BR SKC
     FM211600 05006KT P6SM SKC=



000
FTUS44 KLCH 210500
TAFLCH
TAF
KLCH 210520Z 2106/2206 VRB04KT P6SM SKC
     FM211500 07007KT P6SM SKC=



000
FTUS44 KLCH 202300
TAFLFT
TAF
KLFT 202324Z 2100/2124 VRB03KT P6SM SKC
     FM211500 05007KT P6SM SKC=



000
FTUS44 KLCH 202300
TAFARA
TAF
KARA 202324Z 2100/2124 07008KT P6SM SKC
     FM210020 VRB04KT P6SM SKC
     FM211500 05008KT P6SM SKC=



000
FTUS44 KLCH 202300
TAFBPT
TAF
KBPT 202324Z 2100/2124 12008KT P6SM SKC
     FM210200 VRB04KT P6SM SKC
     FM211500 07008KT P6SM SKC=



000
FTUS44 KLCH 202300
TAFAEX
TAF
KAEX 202324Z 2100/2124 VRB03KT P6SM SKC
      TEMPO 2109/2112 3SM BR SKC
     FM211500 03005KT P6SM SKC=



000
FTUS44 KLCH 202300
TAFLCH
TAF
KLCH 202324Z 2100/2124 VRB04KT P6SM SKC
     FM211500 07007KT P6SM SKC=



000
FTUS44 KLCH 201700
TAFLCH
TAF
KLCH 201720Z 2018/2118 11011KT P6SM SCT035
     FM210000 11003KT P6SM SKC
     FM211500 07007KT P6SM SKC=



000
FTUS44 KLCH 201700
TAFAEX
TAF
KAEX 201720Z 2018/2118 09008KT P6SM FEW040
     FM202300 12003KT P6SM SKC
     FM210900 00000KT 4SM BR SKC
     FM211300 05006KT P6SM SKC=



000
FTUS44 KLCH 201700
TAFLFT
TAF
KLFT 201720Z 2018/2118 07009KT P6SM SCT035
     FM210000 10003KT P6SM SKC
     FM211600 05005KT P6SM SKC=



000
FTUS44 KLCH 201700
TAFBPT
TAF
KBPT 201720Z 2018/2118 10012KT P6SM SCT030
     FM210200 11005KT P6SM SKC
     FM211500 07008KT P6SM SKC=



000
FTUS44 KLCH 201700
TAFARA
TAF
KARA 201720Z 2018/2118 08012KT P6SM SCT030
     FM210000 10003KT P6SM SKC
     FM211600 05005KT P6SM SKC=



000
FTUS44 KLCH 201100
TAFARA
TAF
KARA 201123Z 2012/2112 06009KT P6SM SKC
     FM201500 07012KT P6SM SKC
     FM210100 07004KT P6SM SKC
     FM211000 05003KT 3SM BR SKC=



000
FTUS44 KLCH 201100
TAFBPT
TAF
KBPT 201123Z 2012/2112 06007KT P6SM SCT100
     FM201500 08012KT P6SM SCT035
     FM202300 07004KT P6SM FEW050 FEW100
     FM210500 07005KT 3SM BR SKC=



000
FTUS44 KLCH 201100
TAFLCH
TAF
KLCH 201123Z 2012/2112 06006KT P6SM SKC
     FM201500 09012KT P6SM SCT035
     FM210000 08003KT P6SM SKC=



000
FTUS44 KLCH 201100
TAFAEX
TAF
KAEX 201123Z 2012/2112 00000KT 3SM MIFG SKC
      TEMPO 2012/2013 1SM BR SCT004
     FM201400 09008KT P6SM FEW050
     FM202300 12003KT P6SM SKC=



000
FTUS44 KLCH 201100
TAFLFT
TAF
KLFT 201123Z 2012/2112 05005KT P6SM SKC
     FM210000 VRB03KT P6SM SKC=



000
FTUS44 KLCH 201000 AAA
TAFAEX
TAF AMD
KAEX 201030Z 2011/2106 00000KT 3SM MIFG SKC
      TEMPO 2011/2013 1SM BR SCT004
     FM201400 09008KT P6SM FEW050
     FM202300 12003KT P6SM SKC=



000
FTUS44 KLCH 200700 AAA
TAFBPT
TAF AMD
KBPT 200726Z 2007/2106 08006KT P6SM SCT100
     FM201500 09010KT P6SM SCT035
     FM202300 07003KT P6SM FEW050 FEW100
     FM210500 07005KT 3SM BR SKC=



000
FTUS44 KLCH 200500
TAFLCH
TAF
KLCH 200520Z 2006/2106 05003KT P6SM FEW025
      TEMPO 2009/2013 4SM BR
     FM201500 08011KT P6SM SCT035
     FM210100 08004KT P6SM SKC=



000
FTUS44 KLCH 200500
TAFBPT
TAF
KBPT 200520Z 2006/2106 06004KT P6SM FEW025
      TEMPO 2009/2013 5SM BR
     FM201500 09012KT P6SM SCT035
     FM210100 09004KT P6SM SKC=



000
FTUS44 KLCH 200500
TAFARA
TAF
KARA 200520Z 2006/2106 06003KT P6SM FEW025
      TEMPO 2009/2013 5SM BR
     FM201500 07012KT P6SM SCT035
     FM210100 07004KT P6SM SKC=



000
FTUS44 KLCH 200500
TAFLFT
TAF
KLFT 200520Z 2006/2106 06003KT P6SM FEW025
      TEMPO 2009/2013 5SM BR
     FM201500 07010KT P6SM SCT035
     FM210100 VRB03KT P6SM SKC=



000
FTUS44 KLCH 200500
TAFAEX
TAF
KAEX 200520Z 2006/2106 05003KT P6SM SKC
      TEMPO 2009/2013 3SM BR
     FM201500 08010KT P6SM FEW040
     FM210000 00000KT P6SM SKC=



000
FTUS44 KLCH 200100 AAA
TAFBPT
TAF AMD
KBPT 200134Z 2002/2024 13006KT P6SM SCT050 BKN100
     FM200600 06004KT P6SM FEW025
      TEMPO 2009/2013 5SM BR
     FM201500 09012KT P6SM SCT035=



000
FTUS44 KLCH 192300
TAFARA
TAF
KARA 192320Z 2000/2024 09008KT P6SM SCT120
     FM200300 06003KT P6SM FEW025
      TEMPO 2009/2013 5SM BR
     FM201500 07012KT P6SM SCT035=



000
FTUS44 KLCH 192300
TAFAEX
TAF
KAEX 192320Z 2000/2024 12007KT P6SM FEW045 SCT050
     FM200100 05003KT P6SM SKC
      TEMPO 2009/2013 3SM BR
     FM201500 08010KT P6SM FEW040=



000
FTUS44 KLCH 192300
TAFLCH
TAF
KLCH 192320Z 2000/2024 11007KT P6SM SCT120
     FM200300 05003KT P6SM FEW025
      TEMPO 2009/2013 4SM BR
     FM201500 08011KT P6SM SCT035=



000
FTUS44 KLCH 192300
TAFLFT
TAF
KLFT 192320Z 2000/2024 09006KT P6SM SCT120
     FM200300 06003KT P6SM FEW025
      TEMPO 2009/2013 5SM BR
     FM201500 07010KT P6SM SCT035=



000
FTUS44 KLCH 192300
TAFBPT
TAF
KBPT 192320Z 2000/2024 12008KT P6SM VCSH SCT025 BKN050
      TEMPO 2000/2002 4SM SHRA OVC025
     FM200300 06004KT P6SM FEW025
      TEMPO 2009/2013 5SM BR
     FM201500 09012KT P6SM SCT035=



000
FTUS44 KLCH 191700
TAFLFT
TAF
KLFT 191729Z 1918/2018 08006KT P6SM VCSH SCT025
     FM192300 VRB04KT P6SM BKN040
     FM200400 VRB03KT P6SM SKC
      TEMPO 2008/2012 5SM BR
     FM201500 07006KT P6SM SKC=



000
FTUS44 KLCH 191700
TAFLCH
TAF
KLCH 191729Z 1918/2018 10007KT P6SM VCTS SCT025CB BKN100
     FM192300 VRB05KT P6SM BKN050
     FM200400 VRB03KT P6SM SKC
      TEMPO 2008/2012 3SM BR
     FM201500 08010KT P6SM SKC=



000
FTUS44 KLCH 191700
TAFAEX
TAF
KAEX 191729Z 1918/2018 12007KT P6SM SCT025
     FM192300 VRB04KT P6SM BKN040
     FM200400 VRB03KT P6SM SKC
      TEMPO 2008/2012 5SM BR
     FM201500 09010KT P6SM SKC=



000
FTUS44 KLCH 191700
TAFBPT
TAF
KBPT 191729Z 1918/2018 10007KT P6SM VCTS SCT025CB BKN040 OVC100
     FM192300 VRB05KT P6SM BKN040
     FM200400 VRB03KT P6SM SKC
      TEMPO 2008/2012 5SM BR
     FM201500 08010KT P6SM SKC=



000
FTUS44 KLCH 191700
TAFARA
TAF
KARA 191729Z 1918/2018 10009KT P6SM VCSH SCT025
     FM192300 VRB05KT P6SM BKN040
     FM200400 VRB03KT P6SM SKC
      TEMPO 2008/2012 5SM BR
     FM201500 08010KT P6SM SKC=



    US Dept of Commerce
    National Oceanic and Atmospheric Administration
    National Weather Service
    1325 East West Highway
    Silver Spring, MD 20910
    Page Author: NWS Internet Services Team
Disclaimer
Information Quality
Credits
Glossary
Privacy Policy
Freedom of Information Act (FOIA)
About Us
Career Opportunities